Depoe Bay, OR

1:00 PM PDT on August 22, 2014 (GMT -0700)
Little Whale Cove | Change Station
CLOSE
Current Station
Personal Weather Station
Location: DePoe Bay, OR
Elevation: 85 ft
Nearby Weather Stations

Elev 85 ft 44.80 °N, 124.07 °W | Updated 3 minutes ago

Mostly Cloudy
Mostly Cloudy
60.8 °F
Feels Like 60.8 °F
N
0.0
Wind Variable Wind from North
Gusts 0.0 mph

Today
High -- | Low -- °F
--% Chance of Precip.
Yesterday
High -- | Low -- °F
Precip. -- in
6:26 AM 8:10 PM
Waning Crescent, 7% visible
Pressure 30.11 in
Visibility 10.0 miles
Clouds Scattered Clouds 300 ft
Scattered Clouds 900 ft
Mostly Cloudy 1400 ft
Dew Point 58 °F
Humidity 90%
Rainfall 0.00 in
Snow Depth Not available.
UV 5 out of 12
Pollen 3.60 out of 12
Air Quality Not available.
Flu Activity Not available.
METAR KONP 221955Z AUTO 34008KT 10SM SCT003 SCT009 BKN014 17/15 A3011 RMK AO2

More Conditions Fewer Conditions

Pressure 30.11 in
Visibility 10.0 miles
Clouds Scattered Clouds 300 ft
Scattered Clouds 900 ft
Mostly Cloudy 1400 ft
Dew Point 58 °F
Humidity 90%
Rainfall 0.00 in
Snow Depth Not available.
UV 5 out of 12
Pollen 3.60 out of 12
Air Quality Not available.
Flu Activity Not available.
METAR KONP 221955Z AUTO 34008KT 10SM SCT003 SCT009 BKN014 17/15 A3011 RMK AO2

More Conditions Fewer Conditions

10-Day Weather Forecast

Almanac

Astronomy

Aug. 22, 2014 Rise Set
Actual Time 6:26 AM PDT 8:10 PM PDT
Civil Twilight 5:55 AM PDT 8:41 PM PDT
Nautical Twilight 5:17 AM PDT 9:19 PM PDT
Astronomical Twilight 4:36 AM PDT 9:59 PM PDT
Moon 3:51 AM PDT 6:24 PM PDT
Length of Visible Light 14h 45m
Length of Day
13h 43m
Tomorrow will be 2m 53s shorter.
Waning Crescent, 7% of the Moon is Illuminated
Today
Waning Crescent
Aug 25
New
Sep 2
First Quarter
Sep 8
Full
Sep 15
Last Quarter

Today's Extremes

State Highs State Lows

Community

WunderPhotos

Upload Photos

1,746,239 photos uploaded!

Nearby

Snow Depth

Station Depth Elevation
Saddle Mountain 4 in 3250 ft
Seine Creek 0 in 2000 ft
Daly Lake 0 in 3600 ft
Peavine Ridge 0 in 3500 ft
North Fork 1 in 3120 ft

Earthquake Activity

City Distance Mag. Time & Date
No recent earthquake activity has been reported nearby.
Minimum magnitude displayed is 2.5.

Coastal Water Temperatures

Place Temperature
South Beach, OR 51.1 °F
Charleston, OR 52.0 °F

Nearby Weather Stations